sensor_id;sensor_type;location;lat;lon;timestamp;pressure;altitude;pressure_sealevel;temperature;humidity
23318;BME280;11831;55.918;37.746;2023-03-16T00:01:41;98929.22;;;7.01;0.00
23318;BME280;11831;55.918;37.746;2023-03-16T00:04:07;98933.87;;;6.49;0.00
23318;BME280;11831;55.918;37.746;2023-03-16T00:06:33;98928.00;;;6.97;0.00
23318;BME280;11831;55.918;37.746;2023-03-16T00:09:02;98940.25;;;6.73;0.00
23318;BME280;11831;55.918;37.746;2023-03-16T00:11:29;98938.62;;;6.40;0.00
23318;BME280;11831;55.918;37.746;2023-03-16T00:13:55;98931.56;;;6.59;0.00
23318;BME280;11831;55.918;37.746;2023-03-16T00:16:23;98927.56;;;7.06;0.00
23318;BME280;11831;55.918;37.746;2023-03-16T00:18:50;98910.09;;;6.61;0.00
23318;BME280;11831;55.918;37.746;2023-03-16T00:21:16;98899.34;;;6.49;0.00
23318;BME280;11831;55.918;37.746;2023-03-16T00:23:43;98903.03;;;7.04;0.00
23318;BME280;11831;55.918;37.746;2023-03-16T00:26:09;98904.59;;;6.87;0.00
23318;BME280;11831;55.918;37.746;2023-03-16T00:28:38;98910.09;;;6.29;0.00
23318;BME280;11831;55.918;37.746;2023-03-16T00:31:06;98910.94;;;6.86;0.00
23318;BME280;11831;55.918;37.746;2023-03-16T00:33:34;98901.50;;;7.15;0.00
23318;BME280;11831;55.918;37.746;2023-03-16T00:36:01;98904.66;;;6.80;0.00
23318;BME280;11831;55.918;37.746;2023-03-16T00:38:30;98901.22;;;6.98;0.00
23318;BME280;11831;55.918;37.746;2023-03-16T00:40:57;98900.03;;;7.19;0.00
23318;BME280;11831;55.918;37.746;2023-03-16T00:43:23;98901.13;;;6.87;0.00
23318;BME280;11831;55.918;37.746;2023-03-16T00:45:57;98903.41;;;6.83;0.00
23318;BME280;11831;55.918;37.746;2023-03-16T00:48:24;98901.09;;;7.36;0.00
23318;BME280;11831;55.918;37.746;2023-03-16T00:50:50;98899.34;;;7.24;0.00
23318;BME280;11831;55.918;37.746;2023-03-16T00:53:19;98899.72;;;7.27;0.00
23318;BME280;11831;55.918;37.746;2023-03-16T00:55:47;98904.22;;;7.08;0.00
23318;BME280;11831;55.918;37.746;2023-03-16T00:58:13;98910.47;;;6.64;0.00
23318;BME280;11831;55.918;37.746;2023-03-16T01:00:40;98902.47;;;6.96;0.00
23318;BME280;11831;55.918;37.746;2023-03-16T01:03:06;98917.34;;;6.47;0.00
23318;BME280;11831;55.918;37.746;2023-03-16T01:05:32;98916.78;;;6.70;0.00
23318;BME280;11831;55.918;37.746;2023-03-16T01:07:59;98913.38;;;7.12;0.00
23318;BME280;11831;55.918;37.746;2023-03-16T01:10:27;98918.25;;;6.91;0.00
23318;BME280;11831;55.918;37.746;2023-03-16T01:12:54;98911.72;;;6.62;0.00
23318;BME280;11831;55.918;37.746;2023-03-16T01:15:21;98913.44;;;6.49;0.00
23318;BME280;11831;55.918;37.746;2023-03-16T01:17:48;98913.06;;;6.77;0.00
23318;BME280;11831;55.918;37.746;2023-03-16T01:20:14;98918.75;;;6.81;0.00
23318;BME280;11831;55.918;37.746;2023-03-16T01:22:44;98910.84;;;6.43;0.00
23318;BME280;11831;55.918;37.746;2023-03-16T01:25:11;98914.59;;;6.60;0.00
23318;BME280;11831;55.918;37.746;2023-03-16T01:27:39;98914.41;;;6.87;0.00
23318;BME280;11831;55.918;37.746;2023-03-16T01:30:06;98918.59;;;6.76;0.00
23318;BME280;11831;55.918;37.746;2023-03-16T01:32:38;98914.25;;;6.50;0.00
23318;BME280;11831;55.918;37.746;2023-03-16T01:35:06;98921.06;;;5.95;0.00
23318;BME280;11831;55.918;37.746;2023-03-16T01:37:32;98910.78;;;6.18;0.00
23318;BME280;11831;55.918;37.746;2023-03-16T01:39:59;98925.59;;;6.64;0.00
23318;BME280;11831;55.918;37.746;2023-03-16T01:42:25;98920.03;;;6.40;0.00
23318;BME280;11831;55.918;37.746;2023-03-16T01:44:58;98922.94;;;6.32;0.00
23318;BME280;11831;55.918;37.746;2023-03-16T01:47:27;98923.91;;;6.76;0.00
23318;BME280;11831;55.918;37.746;2023-03-16T01:49:55;98917.84;;;6.62;0.00
23318;BME280;11831;55.918;37.746;2023-03-16T01:52:28;98921.47;;;6.68;0.00
23318;BME280;11831;55.918;37.746;2023-03-16T01:55:08;98926.19;;;6.66;0.00
23318;BME280;11831;55.918;37.746;2023-03-16T01:57:42;98921.03;;;6.77;0.00
23318;BME280;11831;55.918;37.746;2023-03-16T02:00:14;98914.13;;;6.95;0.00
23318;BME280;11831;55.918;37.746;2023-03-16T02:02:50;98918.72;;;6.56;0.00
23318;BME280;11831;55.918;37.746;2023-03-16T02:05:36;98916.88;;;6.57;0.00
23318;BME280;11831;55.918;37.746;2023-03-16T02:08:04;98929.09;;;6.26;0.00
23318;BME280;11831;55.918;37.746;2023-03-16T02:10:32;98926.50;;;6.19;0.00
23318;BME280;11831;55.918;37.746;2023-03-16T02:13:00;98928.34;;;6.82;0.00
23318;BME280;11831;55.918;37.746;2023-03-16T02:15:27;98926.94;;;6.79;0.00
23318;BME280;11831;55.918;37.746;2023-03-16T02:17:54;98922.44;;;6.48;0.00
23318;BME280;11831;55.918;37.746;2023-03-16T02:20:41;98913.69;;;6.73;0.00
23318;BME280;11831;55.918;37.746;2023-03-16T02:23:15;98921.03;;;6.77;0.00
23318;BME280;11831;55.918;37.746;2023-03-16T02:28:39;98918.63;;;6.94;0.00
23318;BME280;11831;55.918;37.746;2023-03-16T02:31:14;98930.75;;;6.59;0.00
23318;BME280;11831;55.918;37.746;2023-03-16T02:33:43;98931.97;;;6.88;0.00
23318;BME280;11831;55.918;37.746;2023-03-16T02:36:13;98920.22;;;6.45;0.00
23318;BME280;11831;55.918;37.746;2023-03-16T02:38:39;98926.75;;;6.99;0.00
23318;BME280;11831;55.918;37.746;2023-03-16T02:41:12;98927.37;;;6.45;0.00
23318;BME280;11831;55.918;37.746;2023-03-16T02:43:44;98918.19;;;6.72;0.00
23318;BME280;11831;55.918;37.746;2023-03-16T02:46:13;98902.69;;;7.19;0.00
23318;BME280;11831;55.918;37.746;2023-03-16T02:48:48;98904.84;;;7.04;0.00
23318;BME280;11831;55.918;37.746;2023-03-16T02:51:18;98916.06;;;7.31;0.00
23318;BME280;11831;55.918;37.746;2023-03-16T02:53:45;98910.87;;;7.18;0.00
23318;BME280;11831;55.918;37.746;2023-03-16T02:56:11;98912.53;;;6.62;0.00
23318;BME280;11831;55.918;37.746;2023-03-16T02:58:37;98914.47;;;6.80;0.00
23318;BME280;11831;55.918;37.746;2023-03-16T03:01:04;98904.66;;;7.05;0.00
23318;BME280;11831;55.918;37.746;2023-03-16T03:03:31;98906.00;;;7.33;0.00
23318;BME280;11831;55.918;37.746;2023-03-16T03:06:00;98897.47;;;7.49;0.00
23318;BME280;11831;55.918;37.746;2023-03-16T03:08:27;98897.66;;;7.29;0.00
23318;BME280;11831;55.918;37.746;2023-03-16T03:10:53;98900.97;;;6.50;0.00
23318;BME280;11831;55.918;37.746;2023-03-16T03:13:19;98906.50;;;6.48;0.00
23318;BME280;11831;55.918;37.746;2023-03-16T03:15:46;98908.41;;;6.66;0.00
23318;BME280;11831;55.918;37.746;2023-03-16T03:18:12;98915.50;;;6.79;0.00
23318;BME280;11831;55.918;37.746;2023-03-16T03:20:39;98903.06;;;6.41;0.00
23318;BME280;11831;55.918;37.746;2023-03-16T03:23:06;98914.84;;;6.83;0.00
23318;BME280;11831;55.918;37.746;2023-03-16T03:25:33;98908.22;;;6.93;0.00
23318;BME280;11831;55.918;37.746;2023-03-16T03:28:00;98893.25;;;6.73;0.00
23318;BME280;11831;55.918;37.746;2023-03-16T03:30:27;98899.66;;;6.91;0.00
23318;BME280;11831;55.918;37.746;2023-03-16T03:32:54;98894.72;;;6.94;0.00
23318;BME280;11831;55.918;37.746;2023-03-16T03:35:21;98884.59;;;7.28;0.00
23318;BME280;11831;55.918;37.746;2023-03-16T03:37:48;98881.34;;;7.01;0.00
23318;BME280;11831;55.918;37.746;2023-03-16T03:40:16;98873.81;;;6.98;0.00
23318;BME280;11831;55.918;37.746;2023-03-16T03:42:42;98876.78;;;6.90;0.00
23318;BME280;11831;55.918;37.746;2023-03-16T03:45:10;98886.19;;;6.61;0.00
23318;BME280;11831;55.918;37.746;2023-03-16T03:47:39;98877.94;;;7.19;0.00
23318;BME280;11831;55.918;37.746;2023-03-16T03:50:07;98878.59;;;7.14;0.00
23318;BME280;11831;55.918;37.746;2023-03-16T03:52:34;98877.66;;;7.27;0.00
23318;BME280;11831;55.918;37.746;2023-03-16T03:55:01;98868.25;;;7.24;0.00
23318;BME280;11831;55.918;37.746;2023-03-16T03:57:28;98868.19;;;7.12;0.00
23318;BME280;11831;55.918;37.746;2023-03-16T03:59:55;98862.53;;;7.02;0.00
23318;BME280;11831;55.918;37.746;2023-03-16T04:02:21;98865.91;;;7.16;0.00
23318;BME280;11831;55.918;37.746;2023-03-16T04:04:48;98872.47;;;6.64;0.00
23318;BME280;11831;55.918;37.746;2023-03-16T04:07:14;98879.59;;;6.95;0.00
23318;BME280;11831;55.918;37.746;2023-03-16T04:09:41;98881.59;;;6.74;0.00
23318;BME280;11831;55.918;37.746;2023-03-16T04:12:09;98876.47;;;6.98;0.00
23318;BME280;11831;55.918;37.746;2023-03-16T04:14:36;98879.59;;;6.95;0.00
23318;BME280;11831;55.918;37.746;2023-03-16T04:17:03;98886.28;;;6.09;0.00
23318;BME280;11831;55.918;37.746;2023-03-16T04:19:29;98887.66;;;6.25;0.00
23318;BME280;11831;55.918;37.746;2023-03-16T04:21:56;98891.03;;;6.01;0.00
23318;BME280;11831;55.918;37.746;2023-03-16T04:24:22;98894.69;;;6.06;0.00
23318;BME280;11831;55.918;37.746;2023-03-16T04:26:48;98894.56;;;5.81;0.00
23318;BME280;11831;55.918;37.746;2023-03-16T04:29:15;98891.62;;;6.03;0.00
23318;BME280;11831;55.918;37.746;2023-03-16T04:31:45;98884.12;;;6.31;0.00
23318;BME280;11831;55.918;37.746;2023-03-16T04:34:12;98883.72;;;5.96;0.00
23318;BME280;11831;55.918;37.746;2023-03-16T04:36:39;98883.84;;;6.08;0.00
23318;BME280;11831;55.918;37.746;2023-03-16T04:39:05;98884.31;;;6.36;0.00
23318;BME280;11831;55.918;37.746;2023-03-16T04:41:32;98880.78;;;6.49;0.00
23318;BME280;11831;55.918;37.746;2023-03-16T04:43:58;98883.72;;;6.34;0.00
23318;BME280;11831;55.918;37.746;2023-03-16T04:46:25;98886.50;;;6.46;0.00
23318;BME280;11831;55.918;37.746;2023-03-16T04:48:52;98893.69;;;6.39;0.00
23318;BME280;11831;55.918;37.746;2023-03-16T04:51:19;98897.41;;;5.93;0.00
23318;BME280;11831;55.918;37.746;2023-03-16T04:53:46;98897.13;;;6.46;0.00
23318;BME280;11831;55.918;37.746;2023-03-16T04:56:12;98902.97;;;5.72;0.00
23318;BME280;11831;55.918;37.746;2023-03-16T04:58:46;98899.28;;;5.73;0.00
23318;BME280;11831;55.918;37.746;2023-03-16T05:01:13;98894.16;;;6.29;0.00
23318;BME280;11831;55.918;37.746;2023-03-16T05:03:40;98898.22;;;5.94;0.00
23318;BME280;11831;55.918;37.746;2023-03-16T05:06:09;98903.84;;;5.52;0.00
23318;BME280;11831;55.918;37.746;2023-03-16T05:08:37;98920.78;;;5.51;0.00
23318;BME280;11831;55.918;37.746;2023-03-16T05:11:03;98928.97;;;5.37;0.00
23318;BME280;11831;55.918;37.746;2023-03-16T05:13:30;98923.06;;;5.35;0.00
23318;BME280;11831;55.918;37.746;2023-03-16T05:15:56;98923.94;;;5.93;0.00
23318;BME280;11831;55.918;37.746;2023-03-16T05:18:23;98935.31;;;6.13;0.00
23318;BME280;11831;55.918;37.746;2023-03-16T05:20:54;98919.41;;;6.45;0.00
23318;BME280;11831;55.918;37.746;2023-03-16T05:23:22;98931.75;;;6.26;0.00
23318;BME280;11831;55.918;37.746;2023-03-16T05:25:49;98927.09;;;6.21;0.00
23318;BME280;11831;55.918;37.746;2023-03-16T05:28:16;98936.63;;;6.29;0.00
23318;BME280;11831;55.918;37.746;2023-03-16T05:30:43;98939.38;;;6.09;0.00
23318;BME280;11831;55.918;37.746;2023-03-16T05:33:11;98939.38;;;6.09;0.00
23318;BME280;11831;55.918;37.746;2023-03-16T05:35:37;98937.78;;;6.40;0.00
23318;BME280;11831;55.918;37.746;2023-03-16T05:38:04;98933.69;;;6.12;0.00
23318;BME280;11831;55.918;37.746;2023-03-16T05:40:30;98933.03;;;6.17;0.00
23318;BME280;11831;55.918;37.746;2023-03-16T05:42:58;98936.22;;;6.64;0.00
23318;BME280;11831;55.918;37.746;2023-03-16T05:45:25;98939.94;;;5.47;0.00
23318;BME280;11831;55.918;37.746;2023-03-16T05:47:52;98934.87;;;6.16;0.00
23318;BME280;11831;55.918;37.746;2023-03-16T05:50:19;98935.59;;;5.92;0.00
23318;BME280;11831;55.918;37.746;2023-03-16T05:52:46;98931.59;;;6.21;0.00
23318;BME280;11831;55.918;37.746;2023-03-16T05:55:15;98928.69;;;6.29;0.00
23318;BME280;11831;55.918;37.746;2023-03-16T05:57:42;98931.34;;;6.61;0.00
23318;BME280;11831;55.918;37.746;2023-03-16T06:00:10;98926.09;;;6.09;0.00
23318;BME280;11831;55.918;37.746;2023-03-16T06:02:41;98928.75;;;6.09;0.00
23318;BME280;11831;55.918;37.746;2023-03-16T06:05:08;98935.63;;;6.62;0.00
23318;BME280;11831;55.918;37.746;2023-03-16T06:07:35;98943.06;;;6.53;0.00
23318;BME280;11831;55.918;37.746;2023-03-16T06:10:01;98959.66;;;5.84;0.00
23318;BME280;11831;55.918;37.746;2023-03-16T06:12:29;98947.97;;;6.49;0.00
23318;BME280;11831;55.918;37.746;2023-03-16T06:14:56;98933.72;;;6.75;0.00
23318;BME280;11831;55.918;37.746;2023-03-16T06:17:22;98939.16;;;6.11;0.00
23318;BME280;11831;55.918;37.746;2023-03-16T06:19:49;98936.19;;;6.70;0.00
23318;BME280;11831;55.918;37.746;2023-03-16T06:22:15;98929.13;;;6.58;0.00
23318;BME280;11831;55.918;37.746;2023-03-16T06:24:43;98929.62;;;6.73;0.00
23318;BME280;11831;55.918;37.746;2023-03-16T06:27:09;98935.66;;;6.87;0.00
23318;BME280;11831;55.918;37.746;2023-03-16T06:29:36;98934.53;;;6.44;0.00
23318;BME280;11831;55.918;37.746;2023-03-16T06:32:03;98937.12;;;6.82;0.00
23318;BME280;11831;55.918;37.746;2023-03-16T06:34:29;98947.97;;;6.49;0.00
23318;BME280;11831;55.918;37.746;2023-03-16T06:36:55;98949.78;;;6.87;0.00
23318;BME280;11831;55.918;37.746;2023-03-16T06:39:22;98949.41;;;7.08;0.00
23318;BME280;11831;55.918;37.746;2023-03-16T06:41:48;98949.22;;;6.78;0.00
23318;BME280;11831;55.918;37.746;2023-03-16T06:44:15;98961.22;;;6.88;0.00
23318;BME280;11831;55.918;37.746;2023-03-16T06:46:42;98961.84;;;6.07;0.00
23318;BME280;11831;55.918;37.746;2023-03-16T06:49:08;98961.59;;;6.60;0.00
23318;BME280;11831;55.918;37.746;2023-03-16T06:51:34;98966.09;;;6.59;0.00
23318;BME280;11831;55.918;37.746;2023-03-16T06:54:01;98976.22;;;6.37;0.00
23318;BME280;11831;55.918;37.746;2023-03-16T06:56:28;98973.16;;;6.34;0.00
23318;BME280;11831;55.918;37.746;2023-03-16T06:58:54;98973.03;;;6.22;0.00
23318;BME280;11831;55.918;37.746;2023-03-16T07:01:20;98972.31;;;6.46;0.00
23318;BME280;11831;55.918;37.746;2023-03-16T07:03:48;98967.34;;;6.57;0.00
23318;BME280;11831;55.918;37.746;2023-03-16T07:06:15;98968.72;;;6.66;0.00
23318;BME280;11831;55.918;37.746;2023-03-16T07:08:41;98968.84;;;6.46;0.00
23318;BME280;11831;55.918;37.746;2023-03-16T07:11:08;98970.59;;;6.59;0.00
23318;BME280;11831;55.918;37.746;2023-03-16T07:13:35;98964.94;;;6.48;0.00
23318;BME280;11831;55.918;37.746;2023-03-16T07:16:02;98966.09;;;6.91;0.00
23318;BME280;11831;55.918;37.746;2023-03-16T07:18:30;98968.16;;;6.89;0.00
23318;BME280;11831;55.918;37.746;2023-03-16T07:20:56;98969.06;;;7.07;0.00
23318;BME280;11831;55.918;37.746;2023-03-16T07:23:23;98972.22;;;6.60;0.00
23318;BME280;11831;55.918;37.746;2023-03-16T07:25:51;98958.78;;;6.54;0.00
23318;BME280;11831;55.918;37.746;2023-03-16T07:28:18;98949.00;;;6.80;0.00
23318;BME280;11831;55.918;37.746;2023-03-16T07:30:45;98953.66;;;6.84;0.00
23318;BME280;11831;55.918;37.746;2023-03-16T07:33:13;98966.63;;;6.74;0.00
23318;BME280;11831;55.918;37.746;2023-03-16T07:35:40;98972.56;;;6.70;0.00
23318;BME280;11831;55.918;37.746;2023-03-16T07:38:06;98973.31;;;6.01;0.00
23318;BME280;11831;55.918;37.746;2023-03-16T07:40:35;98970.97;;;6.24;0.00
23318;BME280;11831;55.918;37.746;2023-03-16T07:43:02;98964.37;;;6.71;0.00
23318;BME280;11831;55.918;37.746;2023-03-16T07:45:29;98965.37;;;7.02;0.00
23318;BME280;11831;55.918;37.746;2023-03-16T07:47:56;98960.94;;;7.45;0.00
23318;BME280;11831;55.918;37.746;2023-03-16T07:50:23;98962.44;;;7.60;0.00
23318;BME280;11831;55.918;37.746;2023-03-16T07:52:49;98957.19;;;7.53;0.00
23318;BME280;11831;55.918;37.746;2023-03-16T07:55:16;98947.59;;;7.70;0.00
23318;BME280;11831;55.918;37.746;2023-03-16T07:57:42;98950.94;;;7.66;0.00
23318;BME280;11831;55.918;37.746;2023-03-16T08:00:13;98955.94;;;7.56;0.00
23318;BME280;11831;55.918;37.746;2023-03-16T08:02:40;98957.69;;;8.17;0.00
23318;BME280;11831;55.918;37.746;2023-03-16T08:05:07;98955.00;;;8.05;0.00
23318;BME280;11831;55.918;37.746;2023-03-16T08:07:35;98952.47;;;7.73;0.00
23318;BME280;11831;55.918;37.746;2023-03-16T08:10:03;98940.94;;;7.79;0.00
23318;BME280;11831;55.918;37.746;2023-03-16T08:12:29;98938.12;;;8.11;0.00
23318;BME280;11831;55.918;37.746;2023-03-16T08:14:56;98945.81;;;8.01;0.00
23318;BME280;11831;55.918;37.746;2023-03-16T08:17:23;98947.41;;;8.20;0.00
23318;BME280;11831;55.918;37.746;2023-03-16T08:19:50;98950.16;;;7.95;0.00
23318;BME280;11831;55.918;37.746;2023-03-16T08:22:16;98950.53;;;8.35;0.00
23318;BME280;11831;55.918;37.746;2023-03-16T08:24:42;98949.72;;;8.35;0.00
23318;BME280;11831;55.918;37.746;2023-03-16T08:27:09;98956.78;;;8.59;0.00
23318;BME280;11831;55.918;37.746;2023-03-16T08:29:36;98957.66;;;8.83;0.00
23318;BME280;11831;55.918;37.746;2023-03-16T08:32:02;98962.38;;;8.69;0.00
23318;BME280;11831;55.918;37.746;2023-03-16T08:34:29;98950.91;;;8.81;0.00
23318;BME280;11831;55.918;37.746;2023-03-16T08:36:58;98966.91;;;8.81;0.00
23318;BME280;11831;55.918;37.746;2023-03-16T08:39:24;98964.37;;;8.86;0.00
23318;BME280;11831;55.918;37.746;2023-03-16T08:41:51;98961.41;;;8.94;0.00
23318;BME280;11831;55.918;37.746;2023-03-16T08:44:19;98955.53;;;9.27;0.00
23318;BME280;11831;55.918;37.746;2023-03-16T08:46:46;98958.53;;;9.19;0.00
23318;BME280;11831;55.918;37.746;2023-03-16T08:49:12;98952.16;;;8.36;0.00
23318;BME280;11831;55.918;37.746;2023-03-16T08:51:39;98953.84;;;8.91;0.00
23318;BME280;11831;55.918;37.746;2023-03-16T08:54:05;98957.50;;;8.00;0.00
23318;BME280;11831;55.918;37.746;2023-03-16T08:56:32;98961.84;;;8.13;0.00
23318;BME280;11831;55.918;37.746;2023-03-16T08:58:59;98959.69;;;8.58;0.00
23318;BME280;11831;55.918;37.746;2023-03-16T09:01:25;98953.28;;;8.10;0.00
23318;BME280;11831;55.918;37.746;2023-03-16T09:03:52;98951.81;;;7.96;0.00
23318;BME280;11831;55.918;37.746;2023-03-16T09:06:19;98953.94;;;7.88;0.00
23318;BME280;11831;55.918;37.746;2023-03-16T09:08:47;98960.81;;;8.14;0.00
23318;BME280;11831;55.918;37.746;2023-03-16T09:11:16;98957.87;;;8.03;0.00
23318;BME280;11831;55.918;37.746;2023-03-16T09:13:44;98965.88;;;8.03;0.00
23318;BME280;11831;55.918;37.746;2023-03-16T09:16:11;98960.88;;;8.25;0.00
23318;BME280;11831;55.918;37.746;2023-03-16T09:18:38;98975.00;;;8.44;0.00
23318;BME280;11831;55.918;37.746;2023-03-16T09:21:07;98963.28;;;8.33;0.00
23318;BME280;11831;55.918;37.746;2023-03-16T09:23:34;98973.94;;;8.33;0.00
23318;BME280;11831;55.918;37.746;2023-03-16T09:26:04;98963.91;;;8.47;0.00
23318;BME280;11831;55.918;37.746;2023-03-16T09:28:33;98971.81;;;8.54;0.00
23318;BME280;11831;55.918;37.746;2023-03-16T09:31:01;98969.84;;;8.31;0.00
23318;BME280;11831;55.918;37.746;2023-03-16T09:33:29;98964.44;;;7.83;0.00
23318;BME280;11831;55.918;37.746;2023-03-16T09:35:57;98968.41;;;8.47;0.00
23318;BME280;11831;55.918;37.746;2023-03-16T09:38:24;98971.66;;;8.49;0.00
23318;BME280;11831;55.918;37.746;2023-03-16T09:41:30;98965.88;;;8.52;0.00
23318;BME280;11831;55.918;37.746;2023-03-16T09:46:43;98967.47;;;8.41;0.00
23318;BME280;11831;55.918;37.746;2023-03-16T09:49:13;98975.09;;;8.19;0.00
23318;BME280;11831;55.918;37.746;2023-03-16T09:51:47;98972.66;;;8.36;0.00
23318;BME280;11831;55.918;37.746;2023-03-16T09:57:32;98971.28;;;7.97;0.00
23318;BME280;11831;55.918;37.746;2023-03-16T10:00:22;98970.03;;;8.48;0.00
23318;BME280;11831;55.918;37.746;2023-03-16T10:05:34;98962.19;;;8.53;0.00
23318;BME280;11831;55.918;37.746;2023-03-16T10:08:11;98958.31;;;8.00;0.00
23318;BME280;11831;55.918;37.746;2023-03-16T10:13:42;98964.44;;;8.37;0.00
23318;BME280;11831;55.918;37.746;2023-03-16T10:18:50;98956.19;;;7.72;0.00
23318;BME280;11831;55.918;37.746;2023-03-16T10:21:20;98969.34;;;8.04;0.00
23318;BME280;11831;55.918;37.746;2023-03-16T10:23:46;98962.31;;;8.09;0.00
23318;BME280;11831;55.918;37.746;2023-03-16T10:26:23;98975.56;;;8.34;0.00
23318;BME280;11831;55.918;37.746;2023-03-16T10:28:51;98972.97;;;7.73;0.00
23318;BME280;11831;55.918;37.746;2023-03-16T10:31:21;98972.13;;;8.27;0.00
23318;BME280;11831;55.918;37.746;2023-03-16T10:33:51;98970.97;;;8.05;0.00
23318;BME280;11831;55.918;37.746;2023-03-16T10:36:32;98976.09;;;8.55;0.00
23318;BME280;11831;55.918;37.746;2023-03-16T10:39:05;98974.19;;;8.44;0.00
23318;BME280;11831;55.918;37.746;2023-03-16T10:41:36;98980.75;;;8.89;0.00
23318;BME280;11831;55.918;37.746;2023-03-16T10:44:13;98974.84;;;8.99;0.00
23318;BME280;11831;55.918;37.746;2023-03-16T10:46:45;98973.50;;;8.78;0.00
23318;BME280;11831;55.918;37.746;2023-03-16T10:49:27;98975.00;;;8.74;0.00
23318;BME280;11831;55.918;37.746;2023-03-16T10:51:58;98980.66;;;8.96;0.00
23318;BME280;11831;55.918;37.746;2023-03-16T10:55:09;98975.62;;;8.09;0.00
23318;BME280;11831;55.918;37.746;2023-03-16T10:57:32;98981.34;;;8.61;0.00
23318;BME280;11831;55.918;37.746;2023-03-16T11:00:20;98975.16;;;8.31;0.00
23318;BME280;11831;55.918;37.746;2023-03-16T11:02:49;98981.13;;;9.05;0.00
23318;BME280;11831;55.918;37.746;2023-03-16T11:07:55;98989.00;;;8.99;0.00
23318;BME280;11831;55.918;37.746;2023-03-16T11:10:33;98983.19;;;8.61;0.00
23318;BME280;11831;55.918;37.746;2023-03-16T11:13:14;98980.94;;;9.41;0.00
23318;BME280;11831;55.918;37.746;2023-03-16T11:15:49;98979.44;;;9.33;0.00
23318;BME280;11831;55.918;37.746;2023-03-16T11:18:30;98977.91;;;9.38;0.00
23318;BME280;11831;55.918;37.746;2023-03-16T11:21:36;98982.97;;;8.62;0.00
23318;BME280;11831;55.918;37.746;2023-03-16T11:27:03;98982.16;;;9.15;0.00
23318;BME280;11831;55.918;37.746;2023-03-16T11:29:39;98975.84;;;8.86;0.00
23318;BME280;11831;55.918;37.746;2023-03-16T11:32:13;98981.16;;;8.75;0.00
23318;BME280;11831;55.918;37.746;2023-03-16T11:34:41;98985.28;;;8.89;0.00
23318;BME280;11831;55.918;37.746;2023-03-16T11:45:40;98990.22;;;9.27;0.00
23318;BME280;11831;55.918;37.746;2023-03-16T11:48:38;98993.81;;;9.32;0.00
23318;BME280;11831;55.918;37.746;2023-03-16T11:51:08;98996.00;;;9.36;0.00
23318;BME280;11831;55.918;37.746;2023-03-16T11:53:55;99006.91;;;9.34;0.00
23318;BME280;11831;55.918;37.746;2023-03-16T11:56:42;98998.34;;;9.32;0.00
23318;BME280;11831;55.918;37.746;2023-03-16T12:10:50;99013.09;;;8.63;0.00
23318;BME280;11831;55.918;37.746;2023-03-16T12:16:53;99018.75;;;8.36;0.00
23318;BME280;11831;55.918;37.746;2023-03-16T12:19:21;99020.75;;;8.41;0.00
23318;BME280;11831;55.918;37.746;2023-03-16T12:22:20;99017.37;;;8.34;0.00
23318;BME280;11831;55.918;37.746;2023-03-16T12:24:51;99014.75;;;8.27;0.00
23318;BME280;11831;55.918;37.746;2023-03-16T12:27:22;99014.84;;;8.39;0.00
23318;BME280;11831;55.918;37.746;2023-03-16T12:32:44;99014.16;;;8.07;0.00
23318;BME280;11831;55.918;37.746;2023-03-16T12:38:17;99012.00;;;7.54;0.00
23318;BME280;11831;55.918;37.746;2023-03-16T12:40:59;99017.97;;;7.74;0.00
23318;BME280;11831;55.918;37.746;2023-03-16T12:44:06;99021.38;;;7.82;0.00
23318;BME280;11831;55.918;37.746;2023-03-16T12:46:44;99019.44;;;7.70;0.00
23318;BME280;11831;55.918;37.746;2023-03-16T12:49:15;99029.06;;;7.22;0.00
23318;BME280;11831;55.918;37.746;2023-03-16T12:51:42;99040.16;;;7.43;0.00
23318;BME280;11831;55.918;37.746;2023-03-16T12:54:20;99025.06;;;7.81;0.00
23318;BME280;11831;55.918;37.746;2023-03-16T12:56:49;99034.00;;;7.43;0.00
23318;BME280;11831;55.918;37.746;2023-03-16T12:59:18;99031.34;;;7.43;0.00
23318;BME280;11831;55.918;37.746;2023-03-16T13:02:03;99032.97;;;7.44;0.00
23318;BME280;11831;55.918;37.746;2023-03-16T13:04:36;99041.59;;;7.64;0.00
23318;BME280;11831;55.918;37.746;2023-03-16T13:07:07;99041.88;;;7.56;0.00
23318;BME280;11831;55.918;37.746;2023-03-16T13:09:35;99040.75;;;7.89;0.00
23318;BME280;11831;55.918;37.746;2023-03-16T13:12:07;99044.47;;;8.06;0.00
23318;BME280;11831;55.918;37.746;2023-03-16T13:14:40;99044.88;;;8.28;0.00
23318;BME280;11831;55.918;37.746;2023-03-16T13:19:44;99049.94;;;7.93;0.00
23318;BME280;11831;55.918;37.746;2023-03-16T13:27:38;99053.88;;;8.08;0.00
23318;BME280;11831;55.918;37.746;2023-03-16T13:30:20;99053.47;;;7.87;0.00
23318;BME280;11831;55.918;37.746;2023-03-16T13:32:51;99051.69;;;7.81;0.00
23318;BME280;11831;55.918;37.746;2023-03-16T13:35:18;99048.03;;;8.18;0.00
23318;BME280;11831;55.918;37.746;2023-03-16T13:37:47;99045.94;;;8.20;0.00
23318;BME280;11831;55.918;37.746;2023-03-16T13:40:24;99039.00;;;8.19;0.00
23318;BME280;11831;55.918;37.746;2023-03-16T13:42:52;99041.22;;;8.04;0.00
23318;BME280;11831;55.918;37.746;2023-03-16T13:45:30;99040.94;;;8.12;0.00
23318;BME280;11831;55.918;37.746;2023-03-16T13:47:59;99044.00;;;7.91;0.00
23318;BME280;11831;55.918;37.746;2023-03-16T13:50:31;99044.16;;;7.96;0.00
23318;BME280;11831;55.918;37.746;2023-03-16T13:53:00;99044.09;;;7.59;0.00
23318;BME280;11831;55.918;37.746;2023-03-16T13:55:32;99050.41;;;7.40;0.00
23318;BME280;11831;55.918;37.746;2023-03-16T13:58:00;99049.84;;;6.62;0.00
23318;BME280;11831;55.918;37.746;2023-03-16T14:00:33;99045.31;;;6.75;0.00
23318;BME280;11831;55.918;37.746;2023-03-16T14:03:08;99049.94;;;6.87;0.00
23318;BME280;11831;55.918;37.746;2023-03-16T14:05:39;99052.03;;;6.78;0.00
23318;BME280;11831;55.918;37.746;2023-03-16T14:08:18;99052.03;;;6.78;0.00
23318;BME280;11831;55.918;37.746;2023-03-16T14:10:46;99049.78;;;6.30;0.00
23318;BME280;11831;55.918;37.746;2023-03-16T14:18:32;99059.00;;;6.21;0.00
23318;BME280;11831;55.918;37.746;2023-03-16T14:21:04;99059.03;;;6.08;0.00
23318;BME280;11831;55.918;37.746;2023-03-16T14:23:35;99056.00;;;5.91;0.00
23318;BME280;11831;55.918;37.746;2023-03-16T14:26:04;99051.09;;;5.95;0.00
23318;BME280;11831;55.918;37.746;2023-03-16T14:28:33;99061.69;;;5.81;0.00